Aérodrome :
LOGIN :

S'inscrire | Disclaimer

   EN    FR    IT 

 










Légende :    VFR   VFR Marginal   IFR   IFR Intensif   IFR Très Intensif
Visi : 
Plafond : 
>= 8 km
>= 3000ft
5 à 8 km
1000 à 3000 ft
1500m à 5 km
500 à 1000 ft
800 à 1500m
200 à 500 ft
< 800m
< 200 ft
Symboles :   Orages  Brouillard  Fortes neiges  Fortes précipitations  Vent > 20 kt
SIGMETs :   Divers  Orages  Givrage  Turbulence  Onde Orograph.  Cendres Volcan.






- Altitude de l'aérodrome : 106 ft
- Code IATA : NRN


EDLV - Weeze

DERNIER METAR :
  • 172150Z 29004KT 9999 BKN015 07/05 Q1037

METARs EXPIRÉS :
  • 172120Z 31004KT 280V340 9999 BKN016 08/06 Q1037
  • 172050Z 28003KT 9999 BKN015 08/06 Q1037
  • 172020Z VRB03KT 9999 BKN015 08/06 Q1037
  • 171950Z 30004KT 9999 BKN020 08/06 Q1036
  • 171920Z 31004KT 280V340 9999 BKN017 08/06 Q1036

TAF TAF EDLV
Valide du 17 à 18h jusqu'au 18 à 18h UTC


171700Z 1718/1818 31005KT 9999 BKN015
PROB30
TEMPO 1719/1801 BKN012
BECMG 1801/1804 3500 BR BKN006
TEMPO 1804/1811 2000 BR BKN003
PROB30
TEMPO 1806/1810 0700 FG BKN001
BECMG 1811/1815 6000 SCT005
TEMPO 1815/1818 4500 BR BKN005



MET'MAP, la Météo Aéronautique d'un coup d'oeil ! - Copyright ORBIFLY Décembre 2007 - Disclaimer

ORBIFLY MET'MAP TEAM :

Programmation & Développement : Alexandra Zaïnal
Sur une idée originale de : Baudouin d'Aumeries
Assistance à la programmation : Marc-Olivier Méhu
Soutien technique & logistique : Manuel Goepfert

Contact : metmap@orbifly.com




SOURCES & CREDITS :

   NOAA